sensor_id;sensor_type;location;lat;lon;timestamp;P1;durP1;ratioP1;P2;durP2;ratioP2
8632;SDS011;4354;49.832;10.746;2022-10-16T00:00:57;3.38;;;2.47;;
8632;SDS011;4354;49.832;10.746;2022-10-16T00:03:23;3.00;;;2.35;;
8632;SDS011;4354;49.832;10.746;2022-10-16T00:05:58;3.05;;;2.05;;
8632;SDS011;4354;49.832;10.746;2022-10-16T00:08:26;3.83;;;2.30;;
8632;SDS011;4354;49.832;10.746;2022-10-16T00:10:58;3.30;;;2.40;;
8632;SDS011;4354;49.832;10.746;2022-10-16T00:13:25;2.58;;;2.15;;
8632;SDS011;4354;49.832;10.746;2022-10-16T00:15:54;4.53;;;2.20;;
8632;SDS011;4354;49.832;10.746;2022-10-16T00:18:22;3.22;;;1.77;;
8632;SDS011;4354;49.832;10.746;2022-10-16T00:20:50;3.90;;;1.70;;
8632;SDS011;4354;49.832;10.746;2022-10-16T00:23:17;1.88;;;1.77;;
8632;SDS011;4354;49.832;10.746;2022-10-16T00:25:44;4.63;;;1.75;;
8632;SDS011;4354;49.832;10.746;2022-10-16T00:28:11;2.67;;;1.75;;
8632;SDS011;4354;49.832;10.746;2022-10-16T00:30:38;2.60;;;1.95;;
8632;SDS011;4354;49.832;10.746;2022-10-16T00:33:05;2.00;;;1.83;;
8632;SDS011;4354;49.832;10.746;2022-10-16T00:35:32;4.38;;;1.95;;
8632;SDS011;4354;49.832;10.746;2022-10-16T00:37:59;2.97;;;2.00;;
8632;SDS011;4354;49.832;10.746;2022-10-16T00:40:25;4.38;;;2.70;;
8632;SDS011;4354;49.832;10.746;2022-10-16T00:42:54;2.45;;;2.25;;
8632;SDS011;4354;49.832;10.746;2022-10-16T00:45:21;3.15;;;2.13;;
8632;SDS011;4354;49.832;10.746;2022-10-16T00:47:47;3.05;;;2.25;;
8632;SDS011;4354;49.832;10.746;2022-10-16T00:52:56;5.07;;;2.70;;
8632;SDS011;4354;49.832;10.746;2022-10-16T00:55:24;3.85;;;2.38;;
8632;SDS011;4354;49.832;10.746;2022-10-16T00:57:52;5.07;;;2.72;;
8632;SDS011;4354;49.832;10.746;2022-10-16T01:00:20;3.90;;;2.60;;
8632;SDS011;4354;49.832;10.746;2022-10-16T01:02:53;4.63;;;2.65;;
8632;SDS011;4354;49.832;10.746;2022-10-16T01:05:22;3.15;;;2.40;;
8632;SDS011;4354;49.832;10.746;2022-10-16T01:10:40;5.22;;;2.60;;
8632;SDS011;4354;49.832;10.746;2022-10-16T01:13:24;2.92;;;2.55;;
8632;SDS011;4354;49.832;10.746;2022-10-16T01:16:15;3.55;;;2.88;;
8632;SDS011;4354;49.832;10.746;2022-10-16T01:18:57;3.95;;;2.65;;
8632;SDS011;4354;49.832;10.746;2022-10-16T01:21:28;2.78;;;2.35;;
8632;SDS011;4354;49.832;10.746;2022-10-16T01:26:57;3.08;;;2.53;;
8632;SDS011;4354;49.832;10.746;2022-10-16T01:29:33;3.22;;;2.88;;
8632;SDS011;4354;49.832;10.746;2022-10-16T01:32:31;5.03;;;2.67;;
8632;SDS011;4354;49.832;10.746;2022-10-16T01:35:11;7.20;;;2.60;;
8632;SDS011;4354;49.832;10.746;2022-10-16T01:40:32;2.85;;;2.50;;
8632;SDS011;4354;49.832;10.746;2022-10-16T01:43:05;6.68;;;2.92;;
8632;SDS011;4354;49.832;10.746;2022-10-16T01:45:41;3.70;;;2.30;;
8632;SDS011;4354;49.832;10.746;2022-10-16T01:48:17;3.28;;;2.53;;
8632;SDS011;4354;49.832;10.746;2022-10-16T01:50:49;2.40;;;2.20;;
8632;SDS011;4354;49.832;10.746;2022-10-16T01:53:30;6.75;;;2.60;;
8632;SDS011;4354;49.832;10.746;2022-10-16T01:55:57;4.50;;;3.20;;
8632;SDS011;4354;49.832;10.746;2022-10-16T01:58:25;4.68;;;2.83;;
8632;SDS011;4354;49.832;10.746;2022-10-16T02:00:56;3.70;;;2.60;;
8632;SDS011;4354;49.832;10.746;2022-10-16T02:03:23;2.40;;;2.20;;
8632;SDS011;4354;49.832;10.746;2022-10-16T02:05:51;3.25;;;2.42;;
8632;SDS011;4354;49.832;10.746;2022-10-16T02:08:21;4.65;;;2.17;;
8632;SDS011;4354;49.832;10.746;2022-10-16T02:10:50;5.28;;;2.65;;
8632;SDS011;4354;49.832;10.746;2022-10-16T02:13:29;2.88;;;2.28;;
8632;SDS011;4354;49.832;10.746;2022-10-16T02:15:59;2.85;;;2.45;;
8632;SDS011;4354;49.832;10.746;2022-10-16T02:18:26;5.72;;;2.30;;
8632;SDS011;4354;49.832;10.746;2022-10-16T02:20:57;2.25;;;2.15;;
8632;SDS011;4354;49.832;10.746;2022-10-16T02:23:44;2.20;;;2.00;;
8632;SDS011;4354;49.832;10.746;2022-10-16T02:26:18;2.83;;;2.10;;
8632;SDS011;4354;49.832;10.746;2022-10-16T02:28:52;3.58;;;2.25;;
8632;SDS011;4354;49.832;10.746;2022-10-16T02:31:23;2.25;;;2.05;;
8632;SDS011;4354;49.832;10.746;2022-10-16T02:33:54;4.22;;;2.70;;
8632;SDS011;4354;49.832;10.746;2022-10-16T02:36:25;2.63;;;2.22;;
8632;SDS011;4354;49.832;10.746;2022-10-16T02:38:53;3.90;;;2.40;;
8632;SDS011;4354;49.832;10.746;2022-10-16T02:41:21;2.58;;;2.30;;
8632;SDS011;4354;49.832;10.746;2022-10-16T02:43:49;2.53;;;2.33;;
8632;SDS011;4354;49.832;10.746;2022-10-16T02:46:16;2.00;;;1.88;;
8632;SDS011;4354;49.832;10.746;2022-10-16T02:48:44;2.90;;;2.08;;
8632;SDS011;4354;49.832;10.746;2022-10-16T02:51:11;3.60;;;2.30;;
8632;SDS011;4354;49.832;10.746;2022-10-16T02:53:37;2.97;;;2.17;;
8632;SDS011;4354;49.832;10.746;2022-10-16T02:56:04;3.38;;;2.20;;
8632;SDS011;4354;49.832;10.746;2022-10-16T02:58:31;2.45;;;2.25;;
8632;SDS011;4354;49.832;10.746;2022-10-16T03:00:57;2.38;;;2.17;;
8632;SDS011;4354;49.832;10.746;2022-10-16T03:03:24;1.92;;;1.65;;
8632;SDS011;4354;49.832;10.746;2022-10-16T03:05:51;3.22;;;1.88;;
8632;SDS011;4354;49.832;10.746;2022-10-16T03:08:18;4.72;;;2.05;;
8632;SDS011;4354;49.832;10.746;2022-10-16T03:10:49;3.05;;;1.70;;
8632;SDS011;4354;49.832;10.746;2022-10-16T03:13:16;2.63;;;2.20;;
8632;SDS011;4354;49.832;10.746;2022-10-16T03:15:43;3.50;;;2.35;;
8632;SDS011;4354;49.832;10.746;2022-10-16T03:18:10;2.35;;;2.15;;
8632;SDS011;4354;49.832;10.746;2022-10-16T03:20:37;2.40;;;2.20;;
8632;SDS011;4354;49.832;10.746;2022-10-16T03:23:03;3.88;;;2.00;;
8632;SDS011;4354;49.832;10.746;2022-10-16T03:25:30;4.82;;;1.90;;
8632;SDS011;4354;49.832;10.746;2022-10-16T03:27:57;2.00;;;1.80;;
8632;SDS011;4354;49.832;10.746;2022-10-16T03:30:23;2.58;;;1.90;;
8632;SDS011;4354;49.832;10.746;2022-10-16T03:32:50;4.57;;;1.67;;
8632;SDS011;4354;49.832;10.746;2022-10-16T03:35:20;2.65;;;1.90;;
8632;SDS011;4354;49.832;10.746;2022-10-16T03:37:47;1.95;;;1.75;;
8632;SDS011;4354;49.832;10.746;2022-10-16T03:40:14;2.97;;;1.88;;
8632;SDS011;4354;49.832;10.746;2022-10-16T03:42:42;4.90;;;2.10;;
8632;SDS011;4354;49.832;10.746;2022-10-16T03:45:10;3.92;;;2.08;;
8632;SDS011;4354;49.832;10.746;2022-10-16T03:47:37;3.25;;;2.00;;
8632;SDS011;4354;49.832;10.746;2022-10-16T03:50:04;2.45;;;1.75;;
8632;SDS011;4354;49.832;10.746;2022-10-16T03:52:31;4.32;;;2.22;;
8632;SDS011;4354;49.832;10.746;2022-10-16T03:54:59;5.82;;;2.35;;
8632;SDS011;4354;49.832;10.746;2022-10-16T03:57:25;2.75;;;1.90;;
8632;SDS011;4354;49.832;10.746;2022-10-16T03:59:52;3.28;;;2.03;;
8632;SDS011;4354;49.832;10.746;2022-10-16T04:02:19;2.35;;;1.95;;
8632;SDS011;4354;49.832;10.746;2022-10-16T04:04:46;3.08;;;1.70;;
8632;SDS011;4354;49.832;10.746;2022-10-16T04:07:13;1.95;;;1.70;;
8632;SDS011;4354;49.832;10.746;2022-10-16T04:09:39;4.30;;;2.28;;
8632;SDS011;4354;49.832;10.746;2022-10-16T04:12:06;5.80;;;2.70;;
8632;SDS011;4354;49.832;10.746;2022-10-16T04:14:33;5.82;;;2.38;;
8632;SDS011;4354;49.832;10.746;2022-10-16T04:17:00;5.63;;;2.38;;
8632;SDS011;4354;49.832;10.746;2022-10-16T04:19:26;2.25;;;2.05;;
8632;SDS011;4354;49.832;10.746;2022-10-16T04:21:53;5.22;;;2.47;;
8632;SDS011;4354;49.832;10.746;2022-10-16T04:24:20;3.10;;;2.00;;
8632;SDS011;4354;49.832;10.746;2022-10-16T04:26:46;2.38;;;2.17;;
8632;SDS011;4354;49.832;10.746;2022-10-16T04:29:13;2.70;;;1.77;;
8632;SDS011;4354;49.832;10.746;2022-10-16T04:31:40;2.00;;;1.85;;
8632;SDS011;4354;49.832;10.746;2022-10-16T04:34:06;2.00;;;1.90;;
8632;SDS011;4354;49.832;10.746;2022-10-16T04:36:33;3.47;;;2.10;;
8632;SDS011;4354;49.832;10.746;2022-10-16T04:39:00;5.85;;;2.22;;
8632;SDS011;4354;49.832;10.746;2022-10-16T04:41:26;2.40;;;2.10;;
8632;SDS011;4354;49.832;10.746;2022-10-16T04:43:53;3.25;;;2.00;;
8632;SDS011;4354;49.832;10.746;2022-10-16T04:46:20;4.35;;;1.98;;
8632;SDS011;4354;49.832;10.746;2022-10-16T04:48:47;3.78;;;2.25;;
8632;SDS011;4354;49.832;10.746;2022-10-16T04:51:13;4.15;;;2.35;;
8632;SDS011;4354;49.832;10.746;2022-10-16T04:53:40;5.32;;;3.00;;
8632;SDS011;4354;49.832;10.746;2022-10-16T04:56:07;2.80;;;2.33;;
8632;SDS011;4354;49.832;10.746;2022-10-16T04:58:33;2.67;;;2.47;;
8632;SDS011;4354;49.832;10.746;2022-10-16T05:01:00;4.30;;;2.25;;
8632;SDS011;4354;49.832;10.746;2022-10-16T05:03:27;3.40;;;2.40;;
8632;SDS011;4354;49.832;10.746;2022-10-16T05:05:53;4.80;;;2.05;;
8632;SDS011;4354;49.832;10.746;2022-10-16T05:08:20;3.28;;;2.35;;
8632;SDS011;4354;49.832;10.746;2022-10-16T05:10:47;2.85;;;1.98;;
8632;SDS011;4354;49.832;10.746;2022-10-16T05:13:14;3.60;;;2.30;;
8632;SDS011;4354;49.832;10.746;2022-10-16T05:15:41;4.07;;;2.10;;
8632;SDS011;4354;49.832;10.746;2022-10-16T05:18:08;2.40;;;2.05;;
8632;SDS011;4354;49.832;10.746;2022-10-16T05:20:35;2.17;;;2.00;;
8632;SDS011;4354;49.832;10.746;2022-10-16T05:23:01;2.40;;;1.92;;
8632;SDS011;4354;49.832;10.746;2022-10-16T05:25:28;4.53;;;2.70;;
8632;SDS011;4354;49.832;10.746;2022-10-16T05:27:55;4.82;;;2.30;;
8632;SDS011;4354;49.832;10.746;2022-10-16T05:30:22;4.32;;;2.42;;
8632;SDS011;4354;49.832;10.746;2022-10-16T05:32:49;4.00;;;2.33;;
8632;SDS011;4354;49.832;10.746;2022-10-16T05:35:17;2.42;;;2.22;;
8632;SDS011;4354;49.832;10.746;2022-10-16T05:37:44;2.75;;;2.03;;
8632;SDS011;4354;49.832;10.746;2022-10-16T05:40:11;2.50;;;2.30;;
8632;SDS011;4354;49.832;10.746;2022-10-16T05:42:39;4.18;;;2.30;;
8632;SDS011;4354;49.832;10.746;2022-10-16T05:45:06;2.38;;;1.90;;
8632;SDS011;4354;49.832;10.746;2022-10-16T05:47:36;2.85;;;2.38;;
8632;SDS011;4354;49.832;10.746;2022-10-16T05:50:03;3.42;;;2.25;;
8632;SDS011;4354;49.832;10.746;2022-10-16T05:52:30;2.55;;;2.25;;
8632;SDS011;4354;49.832;10.746;2022-10-16T05:54:57;4.30;;;2.53;;
8632;SDS011;4354;49.832;10.746;2022-10-16T05:57:23;7.90;;;2.40;;
8632;SDS011;4354;49.832;10.746;2022-10-16T05:59:51;2.75;;;2.55;;
8632;SDS011;4354;49.832;10.746;2022-10-16T06:02:17;3.10;;;2.47;;
8632;SDS011;4354;49.832;10.746;2022-10-16T06:04:44;2.60;;;2.40;;
8632;SDS011;4354;49.832;10.746;2022-10-16T06:07:11;2.50;;;2.30;;
8632;SDS011;4354;49.832;10.746;2022-10-16T06:09:38;4.20;;;2.33;;
8632;SDS011;4354;49.832;10.746;2022-10-16T06:12:04;2.97;;;2.38;;
8632;SDS011;4354;49.832;10.746;2022-10-16T06:14:31;3.03;;;2.33;;
8632;SDS011;4354;49.832;10.746;2022-10-16T06:16:58;2.22;;;2.05;;
8632;SDS011;4354;49.832;10.746;2022-10-16T06:19:25;5.15;;;2.70;;
8632;SDS011;4354;49.832;10.746;2022-10-16T06:21:51;2.95;;;2.30;;
8632;SDS011;4354;49.832;10.746;2022-10-16T06:24:18;4.90;;;2.63;;
8632;SDS011;4354;49.832;10.746;2022-10-16T06:26:45;3.00;;;2.58;;
8632;SDS011;4354;49.832;10.746;2022-10-16T06:29:11;2.40;;;2.20;;
8632;SDS011;4354;49.832;10.746;2022-10-16T06:31:38;3.65;;;2.33;;
8632;SDS011;4354;49.832;10.746;2022-10-16T06:34:05;2.80;;;2.40;;
8632;SDS011;4354;49.832;10.746;2022-10-16T06:36:35;2.33;;;2.13;;
8632;SDS011;4354;49.832;10.746;2022-10-16T06:39:02;4.38;;;2.10;;
8632;SDS011;4354;49.832;10.746;2022-10-16T06:41:29;2.65;;;2.45;;
8632;SDS011;4354;49.832;10.746;2022-10-16T06:43:56;3.53;;;2.60;;
8632;SDS011;4354;49.832;10.746;2022-10-16T06:46:23;4.75;;;2.90;;
8632;SDS011;4354;49.832;10.746;2022-10-16T06:48:52;6.15;;;2.92;;
8632;SDS011;4354;49.832;10.746;2022-10-16T06:51:21;5.43;;;2.88;;
8632;SDS011;4354;49.832;10.746;2022-10-16T06:53:50;5.55;;;3.30;;
8632;SDS011;4354;49.832;10.746;2022-10-16T06:56:34;4.03;;;2.80;;
8632;SDS011;4354;49.832;10.746;2022-10-16T06:59:01;2.67;;;2.47;;
8632;SDS011;4354;49.832;10.746;2022-10-16T07:01:28;4.20;;;3.05;;
8632;SDS011;4354;49.832;10.746;2022-10-16T07:03:55;2.65;;;2.45;;
8632;SDS011;4354;49.832;10.746;2022-10-16T07:06:23;5.30;;;2.63;;
8632;SDS011;4354;49.832;10.746;2022-10-16T07:08:51;2.60;;;2.40;;
8632;SDS011;4354;49.832;10.746;2022-10-16T07:11:19;3.67;;;2.92;;
8632;SDS011;4354;49.832;10.746;2022-10-16T07:13:48;2.33;;;2.13;;
8632;SDS011;4354;49.832;10.746;2022-10-16T07:16:20;2.03;;;1.83;;
8632;SDS011;4354;49.832;10.746;2022-10-16T07:18:59;5.70;;;3.10;;
8632;SDS011;4354;49.832;10.746;2022-10-16T07:21:31;4.10;;;2.20;;
8632;SDS011;4354;49.832;10.746;2022-10-16T07:24:03;2.65;;;2.45;;
8632;SDS011;4354;49.832;10.746;2022-10-16T07:26:32;4.30;;;2.65;;
8632;SDS011;4354;49.832;10.746;2022-10-16T07:29:01;5.28;;;2.78;;
8632;SDS011;4354;49.832;10.746;2022-10-16T07:31:28;4.00;;;2.45;;
8632;SDS011;4354;49.832;10.746;2022-10-16T07:33:55;3.20;;;2.22;;
8632;SDS011;4354;49.832;10.746;2022-10-16T07:36:23;4.38;;;2.35;;
8632;SDS011;4354;49.832;10.746;2022-10-16T07:38:50;2.22;;;1.92;;
8632;SDS011;4354;49.832;10.746;2022-10-16T07:41:22;3.75;;;2.20;;
8632;SDS011;4354;49.832;10.746;2022-10-16T07:43:50;6.25;;;2.75;;
8632;SDS011;4354;49.832;10.746;2022-10-16T07:46:18;2.90;;;1.98;;
8632;SDS011;4354;49.832;10.746;2022-10-16T07:48:46;4.25;;;2.30;;
8632;SDS011;4354;49.832;10.746;2022-10-16T07:51:15;2.83;;;2.10;;
8632;SDS011;4354;49.832;10.746;2022-10-16T07:53:43;2.90;;;2.03;;
8632;SDS011;4354;49.832;10.746;2022-10-16T07:56:11;3.53;;;2.22;;
8632;SDS011;4354;49.832;10.746;2022-10-16T07:58:38;3.78;;;2.30;;
8632;SDS011;4354;49.832;10.746;2022-10-16T08:01:09;3.50;;;2.35;;
8632;SDS011;4354;49.832;10.746;2022-10-16T08:03:41;3.10;;;2.00;;
8632;SDS011;4354;49.832;10.746;2022-10-16T08:06:12;3.38;;;2.35;;
8632;SDS011;4354;49.832;10.746;2022-10-16T08:08:39;3.90;;;2.40;;
8632;SDS011;4354;49.832;10.746;2022-10-16T08:11:06;5.65;;;2.22;;
8632;SDS011;4354;49.832;10.746;2022-10-16T08:13:32;5.20;;;2.30;;
8632;SDS011;4354;49.832;10.746;2022-10-16T08:15:59;5.68;;;2.20;;
8632;SDS011;4354;49.832;10.746;2022-10-16T08:18:27;5.45;;;2.17;;
8632;SDS011;4354;49.832;10.746;2022-10-16T08:20:57;4.60;;;2.42;;
8632;SDS011;4354;49.832;10.746;2022-10-16T08:23:26;3.42;;;2.22;;
8632;SDS011;4354;49.832;10.746;2022-10-16T08:25:54;4.30;;;2.33;;
8632;SDS011;4354;49.832;10.746;2022-10-16T08:28:21;6.63;;;2.45;;
8632;SDS011;4354;49.832;10.746;2022-10-16T08:30:49;5.22;;;2.78;;
8632;SDS011;4354;49.832;10.746;2022-10-16T08:33:15;4.63;;;2.53;;
8632;SDS011;4354;49.832;10.746;2022-10-16T08:35:42;6.13;;;2.38;;
8632;SDS011;4354;49.832;10.746;2022-10-16T08:38:09;5.03;;;1.98;;
8632;SDS011;4354;49.832;10.746;2022-10-16T08:40:36;4.65;;;2.25;;
8632;SDS011;4354;49.832;10.746;2022-10-16T08:43:20;2.50;;;2.25;;
8632;SDS011;4354;49.832;10.746;2022-10-16T08:49:02;4.65;;;2.10;;
8632;SDS011;4354;49.832;10.746;2022-10-16T08:51:35;2.45;;;1.92;;
8632;SDS011;4354;49.832;10.746;2022-10-16T08:57:22;3.13;;;2.08;;
8632;SDS011;4354;49.832;10.746;2022-10-16T08:59:51;4.60;;;2.20;;
8632;SDS011;4354;49.832;10.746;2022-10-16T09:02:31;5.28;;;2.00;;
8632;SDS011;4354;49.832;10.746;2022-10-16T09:05:20;3.75;;;2.08;;
8632;SDS011;4354;49.832;10.746;2022-10-16T09:10:47;7.80;;;2.58;;
8632;SDS011;4354;49.832;10.746;2022-10-16T09:13:25;5.50;;;1.90;;
8632;SDS011;4354;49.832;10.746;2022-10-16T09:16:17;4.03;;;2.20;;
8632;SDS011;4354;49.832;10.746;2022-10-16T09:21:24;5.78;;;2.10;;
8632;SDS011;4354;49.832;10.746;2022-10-16T09:23:57;5.63;;;2.20;;
8632;SDS011;4354;49.832;10.746;2022-10-16T09:26:37;8.32;;;2.17;;
8632;SDS011;4354;49.832;10.746;2022-10-16T09:29:04;5.57;;;2.40;;
8632;SDS011;4354;49.832;10.746;2022-10-16T09:31:31;4.85;;;2.40;;
8632;SDS011;4354;49.832;10.746;2022-10-16T09:33:58;2.92;;;2.30;;
8632;SDS011;4354;49.832;10.746;2022-10-16T09:36:30;4.85;;;2.30;;
8632;SDS011;4354;49.832;10.746;2022-10-16T09:39:09;4.40;;;2.20;;
8632;SDS011;4354;49.832;10.746;2022-10-16T09:41:42;5.00;;;2.20;;
8632;SDS011;4354;49.832;10.746;2022-10-16T09:44:24;4.85;;;2.20;;
8632;SDS011;4354;49.832;10.746;2022-10-16T09:47:05;4.30;;;2.13;;
8632;SDS011;4354;49.832;10.746;2022-10-16T09:49:39;4.30;;;2.42;;
8632;SDS011;4354;49.832;10.746;2022-10-16T09:52:21;5.93;;;2.30;;
8632;SDS011;4354;49.832;10.746;2022-10-16T09:54:58;4.22;;;2.10;;
8632;SDS011;4354;49.832;10.746;2022-10-16T09:57:27;3.83;;;2.00;;
8632;SDS011;4354;49.832;10.746;2022-10-16T09:59:55;3.00;;;2.20;;
8632;SDS011;4354;49.832;10.746;2022-10-16T10:02:26;4.78;;;2.40;;
8632;SDS011;4354;49.832;10.746;2022-10-16T10:05:02;6.70;;;2.10;;
8632;SDS011;4354;49.832;10.746;2022-10-16T10:07:32;8.18;;;2.38;;
8632;SDS011;4354;49.832;10.746;2022-10-16T10:10:05;4.97;;;2.17;;
8632;SDS011;4354;49.832;10.746;2022-10-16T10:12:45;3.63;;;2.13;;
8632;SDS011;4354;49.832;10.746;2022-10-16T10:15:12;3.97;;;2.10;;
8632;SDS011;4354;49.832;10.746;2022-10-16T10:17:46;3.67;;;2.22;;
8632;SDS011;4354;49.832;10.746;2022-10-16T10:20:22;5.03;;;2.22;;
8632;SDS011;4354;49.832;10.746;2022-10-16T10:22:51;4.35;;;2.25;;
8632;SDS011;4354;49.832;10.746;2022-10-16T10:38:59;4.80;;;2.33;;
8632;SDS011;4354;49.832;10.746;2022-10-16T11:01:36;5.00;;;2.17;;
8632;SDS011;4354;49.832;10.746;2022-10-16T11:07:26;3.55;;;1.80;;
8632;SDS011;4354;49.832;10.746;2022-10-16T11:09:59;3.67;;;2.05;;
8632;SDS011;4354;49.832;10.746;2022-10-16T11:12:42;2.17;;;1.95;;
8632;SDS011;4354;49.832;10.746;2022-10-16T11:17:57;5.03;;;2.03;;
8632;SDS011;4354;49.832;10.746;2022-10-16T11:23:25;2.55;;;2.03;;
8632;SDS011;4354;49.832;10.746;2022-10-16T11:25:57;6.88;;;2.38;;
8632;SDS011;4354;49.832;10.746;2022-10-16T11:28:35;3.42;;;2.30;;
8632;SDS011;4354;49.832;10.746;2022-10-16T11:31:13;4.10;;;1.98;;
8632;SDS011;4354;49.832;10.746;2022-10-16T11:36:56;6.53;;;2.63;;
8632;SDS011;4354;49.832;10.746;2022-10-16T11:39:30;7.03;;;3.45;;
8632;SDS011;4354;49.832;10.746;2022-10-16T11:42:10;7.90;;;4.07;;
8632;SDS011;4354;49.832;10.746;2022-10-16T11:44:57;6.45;;;3.00;;
8632;SDS011;4354;49.832;10.746;2022-10-16T11:47:51;6.15;;;3.25;;
8632;SDS011;4354;49.832;10.746;2022-10-16T11:53:42;5.32;;;3.08;;
8632;SDS011;4354;49.832;10.746;2022-10-16T11:55:48;8.07;;;2.30;;
8632;SDS011;4354;49.832;10.746;2022-10-16T11:58:29;4.47;;;2.42;;
8632;SDS011;4354;49.832;10.746;2022-10-16T12:01:10;2.70;;;2.15;;
8632;SDS011;4354;49.832;10.746;2022-10-16T12:08:58;3.78;;;2.25;;
8632;SDS011;4354;49.832;10.746;2022-10-16T12:16:38;4.53;;;2.40;;
8632;SDS011;4354;49.832;10.746;2022-10-16T12:19:17;2.83;;;2.00;;
8632;SDS011;4354;49.832;10.746;2022-10-16T12:21:45;3.85;;;1.90;;
8632;SDS011;4354;49.832;10.746;2022-10-16T12:26:59;4.43;;;1.90;;
8632;SDS011;4354;49.832;10.746;2022-10-16T12:29:37;5.40;;;2.22;;
8632;SDS011;4354;49.832;10.746;2022-10-16T12:35:17;4.35;;;3.53;;
8632;SDS011;4354;49.832;10.746;2022-10-16T12:37:49;5.22;;;3.38;;
8632;SDS011;4354;49.832;10.746;2022-10-16T12:42:51;5.30;;;2.97;;
8632;SDS011;4354;49.832;10.746;2022-10-16T12:45:31;6.13;;;3.17;;
8632;SDS011;4354;49.832;10.746;2022-10-16T12:48:00;4.50;;;2.65;;
8632;SDS011;4354;49.832;10.746;2022-10-16T12:52:57;3.55;;;2.17;;
8632;SDS011;4354;49.832;10.746;2022-10-16T12:55:25;5.18;;;1.88;;
8632;SDS011;4354;49.832;10.746;2022-10-16T13:03:33;3.63;;;2.35;;
8632;SDS011;4354;49.832;10.746;2022-10-16T13:11:55;5.30;;;2.30;;
8632;SDS011;4354;49.832;10.746;2022-10-16T13:20:05;2.58;;;1.83;;
8632;SDS011;4354;49.832;10.746;2022-10-16T13:23:04;4.97;;;2.60;;
8632;SDS011;4354;49.832;10.746;2022-10-16T13:26:06;6.32;;;2.70;;
8632;SDS011;4354;49.832;10.746;2022-10-16T13:28:38;3.42;;;1.98;;
8632;SDS011;4354;49.832;10.746;2022-10-16T13:31:09;4.65;;;1.95;;
8632;SDS011;4354;49.832;10.746;2022-10-16T13:33:52;4.70;;;1.73;;
8632;SDS011;4354;49.832;10.746;2022-10-16T13:36:27;6.10;;;2.35;;
8632;SDS011;4354;49.832;10.746;2022-10-16T13:39:06;1.83;;;1.67;;
8632;SDS011;4354;49.832;10.746;2022-10-16T13:41:37;3.50;;;1.60;;
8632;SDS011;4354;49.832;10.746;2022-10-16T13:44:04;2.53;;;1.70;;
8632;SDS011;4354;49.832;10.746;2022-10-16T13:46:38;5.20;;;2.10;;
8632;SDS011;4354;49.832;10.746;2022-10-16T13:49:05;3.17;;;2.42;;
8632;SDS011;4354;49.832;10.746;2022-10-16T13:51:39;4.43;;;1.92;;
8632;SDS011;4354;49.832;10.746;2022-10-16T13:54:07;5.18;;;2.00;;
8632;SDS011;4354;49.832;10.746;2022-10-16T13:56:38;3.65;;;2.38;;
8632;SDS011;4354;49.832;10.746;2022-10-16T13:59:20;4.00;;;2.47;;
8632;SDS011;4354;49.832;10.746;2022-10-16T14:01:55;3.78;;;2.17;;
8632;SDS011;4354;49.832;10.746;2022-10-16T14:04:24;5.53;;;2.35;;
8632;SDS011;4354;49.832;10.746;2022-10-16T14:06:53;2.20;;;1.83;;
8632;SDS011;4354;49.832;10.746;2022-10-16T14:09:25;3.10;;;2.00;;
8632;SDS011;4354;49.832;10.746;2022-10-16T14:11:56;6.43;;;2.10;;
8632;SDS011;4354;49.832;10.746;2022-10-16T14:14:42;2.97;;;2.00;;
8632;SDS011;4354;49.832;10.746;2022-10-16T14:17:14;2.42;;;1.75;;
8632;SDS011;4354;49.832;10.746;2022-10-16T14:19:59;4.25;;;2.25;;
8632;SDS011;4354;49.832;10.746;2022-10-16T14:30:49;4.22;;;1.80;;
8632;SDS011;4354;49.832;10.746;2022-10-16T14:33:22;2.35;;;2.10;;
8632;SDS011;4354;49.832;10.746;2022-10-16T14:38:29;2.58;;;1.83;;
8632;SDS011;4354;49.832;10.746;2022-10-16T14:40:57;2.70;;;1.90;;
8632;SDS011;4354;49.832;10.746;2022-10-16T14:43:32;2.55;;;1.90;;
8632;SDS011;4354;49.832;10.746;2022-10-16T14:46:08;4.18;;;2.60;;
8632;SDS011;4354;49.832;10.746;2022-10-16T14:48:48;3.22;;;2.03;;
8632;SDS011;4354;49.832;10.746;2022-10-16T14:51:17;7.95;;;1.98;;
8632;SDS011;4354;49.832;10.746;2022-10-16T14:53:45;2.67;;;1.95;;
8632;SDS011;4354;49.832;10.746;2022-10-16T14:56:18;4.38;;;1.90;;
8632;SDS011;4354;49.832;10.746;2022-10-16T14:58:47;2.95;;;2.00;;
8632;SDS011;4354;49.832;10.746;2022-10-16T15:01:16;5.05;;;1.95;;
8632;SDS011;4354;49.832;10.746;2022-10-16T15:03:43;3.05;;;1.70;;
8632;SDS011;4354;49.832;10.746;2022-10-16T15:06:11;3.15;;;2.10;;
8632;SDS011;4354;49.832;10.746;2022-10-16T15:08:38;2.38;;;2.00;;
8632;SDS011;4354;49.832;10.746;2022-10-16T15:11:09;1.92;;;1.75;;
8632;SDS011;4354;49.832;10.746;2022-10-16T15:13:41;2.00;;;1.75;;
8632;SDS011;4354;49.832;10.746;2022-10-16T15:16:10;2.45;;;2.25;;
8632;SDS011;4354;49.832;10.746;2022-10-16T15:18:38;4.10;;;3.80;;
8632;SDS011;4354;49.832;10.746;2022-10-16T15:21:05;5.53;;;3.20;;
8632;SDS011;4354;49.832;10.746;2022-10-16T15:23:32;2.85;;;2.58;;
8632;SDS011;4354;49.832;10.746;2022-10-16T15:25:59;4.25;;;2.35;;
8632;SDS011;4354;49.832;10.746;2022-10-16T15:28:26;2.92;;;2.10;;
8632;SDS011;4354;49.832;10.746;2022-10-16T15:30:53;4.72;;;2.10;;
8632;SDS011;4354;49.832;10.746;2022-10-16T15:33:23;2.42;;;2.22;;
8632;SDS011;4354;49.832;10.746;2022-10-16T15:35:53;2.60;;;2.35;;
8632;SDS011;4354;49.832;10.746;2022-10-16T15:38:21;4.00;;;2.17;;
8632;SDS011;4354;49.832;10.746;2022-10-16T15:40:49;2.60;;;2.40;;
8632;SDS011;4354;49.832;10.746;2022-10-16T15:43:16;3.25;;;2.55;;
8632;SDS011;4354;49.832;10.746;2022-10-16T15:45:43;2.08;;;1.88;;
8632;SDS011;4354;49.832;10.746;2022-10-16T15:48:10;2.20;;;2.00;;
8632;SDS011;4354;49.832;10.746;2022-10-16T15:50:39;4.60;;;1.98;;
8632;SDS011;4354;49.832;10.746;2022-10-16T15:53:06;5.38;;;3.35;;
8632;SDS011;4354;49.832;10.746;2022-10-16T15:55:33;5.70;;;4.32;;
8632;SDS011;4354;49.832;10.746;2022-10-16T15:58:02;5.85;;;4.03;;
8632;SDS011;4354;49.832;10.746;2022-10-16T16:00:29;6.22;;;4.05;;
8632;SDS011;4354;49.832;10.746;2022-10-16T16:02:55;4.50;;;3.72;;
8632;SDS011;4354;49.832;10.746;2022-10-16T16:05:22;5.57;;;2.78;;
8632;SDS011;4354;49.832;10.746;2022-10-16T16:07:49;3.55;;;3.22;;
8632;SDS011;4354;49.832;10.746;2022-10-16T16:10:16;3.63;;;3.13;;
8632;SDS011;4354;49.832;10.746;2022-10-16T16:12:45;2.85;;;2.65;;
8632;SDS011;4354;49.832;10.746;2022-10-16T16:15:17;2.88;;;2.65;;
8632;SDS011;4354;49.832;10.746;2022-10-16T16:17:45;4.53;;;3.53;;
8632;SDS011;4354;49.832;10.746;2022-10-16T16:20:12;3.17;;;2.88;;
8632;SDS011;4354;49.832;10.746;2022-10-16T16:22:39;5.53;;;4.03;;
8632;SDS011;4354;49.832;10.746;2022-10-16T16:25:06;4.05;;;3.65;;
8632;SDS011;4354;49.832;10.746;2022-10-16T16:27:33;4.25;;;3.85;;
8632;SDS011;4354;49.832;10.746;2022-10-16T16:30:01;5.70;;;3.53;;
8632;SDS011;4354;49.832;10.746;2022-10-16T16:32:30;4.25;;;3.85;;
8632;SDS011;4354;49.832;10.746;2022-10-16T16:34:57;4.20;;;3.80;;
8632;SDS011;4354;49.832;10.746;2022-10-16T16:37:23;6.53;;;4.20;;
8632;SDS011;4354;49.832;10.746;2022-10-16T16:39:50;5.20;;;4.60;;
8632;SDS011;4354;49.832;10.746;2022-10-16T16:42:17;10.07;;;5.10;;
8632;SDS011;4354;49.832;10.746;2022-10-16T16:44:44;9.88;;;6.72;;
8632;SDS011;4354;49.832;10.746;2022-10-16T16:47:11;13.88;;;9.38;;
8632;SDS011;4354;49.832;10.746;2022-10-16T16:49:37;7.53;;;6.70;;
8632;SDS011;4354;49.832;10.746;2022-10-16T16:52:04;8.02;;;4.47;;
8632;SDS011;4354;49.832;10.746;2022-10-16T16:54:32;5.20;;;4.00;;
8632;SDS011;4354;49.832;10.746;2022-10-16T16:57:04;6.95;;;5.22;;
8632;SDS011;4354;49.832;10.746;2022-10-16T16:59:31;6.80;;;4.40;;
8632;SDS011;4354;49.832;10.746;2022-10-16T17:01:59;4.45;;;3.72;;
8632;SDS011;4354;49.832;10.746;2022-10-16T17:04:27;4.65;;;3.80;;
8632;SDS011;4354;49.832;10.746;2022-10-16T17:06:54;4.22;;;3.90;;
8632;SDS011;4354;49.832;10.746;2022-10-16T17:09:21;5.10;;;4.50;;
8632;SDS011;4354;49.832;10.746;2022-10-16T17:11:48;5.53;;;4.72;;
8632;SDS011;4354;49.832;10.746;2022-10-16T17:14:15;5.65;;;5.10;;
8632;SDS011;4354;49.832;10.746;2022-10-16T17:16:42;6.20;;;5.68;;
8632;SDS011;4354;49.832;10.746;2022-10-16T17:19:14;7.90;;;7.20;;